createdAt,value
2022-10-22T00:00:58.068Z,24.35
2022-10-22T00:03:25.216Z,19.25
2022-10-22T00:05:53.202Z,21.70
2022-10-22T00:08:20.421Z,18.75
2022-10-22T00:10:49.029Z,21.45
2022-10-22T00:13:16.629Z,21.33
2022-10-22T00:15:48.280Z,24.55
2022-10-22T00:18:17.921Z,17.48
2022-10-22T00:20:44.812Z,21.48
2022-10-22T00:23:11.757Z,22.75
2022-10-22T00:25:39.061Z,20.13
2022-10-22T00:28:06.118Z,20.73
2022-10-22T00:30:33.843Z,21.33
2022-10-22T00:33:01.236Z,19.83
2022-10-22T00:35:30.548Z,21.85
2022-10-22T00:37:57.485Z,19.27
2022-10-22T00:40:24.698Z,21.95
2022-10-22T00:42:52.099Z,24.48
2022-10-22T00:45:25.368Z,21.23
2022-10-22T00:47:55.085Z,21.90
2022-10-22T00:50:28.439Z,24.13
2022-10-22T00:52:56.255Z,21.98
2022-10-22T00:55:26.178Z,25.20
2022-10-22T00:57:57.384Z,21.83
2022-10-22T01:00:24.909Z,25.30
2022-10-22T01:02:54.636Z,20.10
2022-10-22T01:05:24.176Z,29.05
2022-10-22T01:07:53.499Z,22.58
2022-10-22T01:10:45.375Z,25.88
2022-10-22T01:13:26.624Z,21.15
2022-10-22T01:15:57.955Z,26.83
2022-10-22T01:18:29.436Z,25.98
2022-10-22T01:21:41.975Z,22.92
2022-10-22T01:24:35.571Z,20.65
2022-10-22T01:27:10.948Z,23.92
2022-10-22T01:29:40.540Z,27.35
2022-10-22T01:32:13.039Z,26.45
2022-10-22T01:34:44.360Z,26.05
2022-10-22T01:37:15.560Z,25.38
2022-10-22T01:39:45.929Z,27.05
2022-10-22T01:42:14.056Z,25.90
2022-10-22T01:44:43.690Z,24.65
2022-10-22T01:47:29.477Z,23.27
2022-10-22T01:50:26.048Z,24.80
2022-10-22T01:52:55.979Z,24.70
2022-10-22T01:55:36.328Z,28.38
2022-10-22T01:58:20.304Z,23.45
2022-10-22T02:01:01.545Z,28.67
2022-10-22T02:03:54.140Z,25.88
2022-10-22T02:06:31.566Z,27.60
2022-10-22T02:09:03.702Z,27.75
2022-10-22T02:11:56.329Z,29.25
2022-10-22T02:15:00.430Z,31.90
2022-10-22T02:17:36.137Z,30.58
2022-10-22T02:20:20.826Z,28.77
2022-10-22T02:22:50.569Z,28.55
2022-10-22T02:25:19.196Z,24.98
2022-10-22T02:27:54.741Z,30.33
2022-10-22T02:30:22.952Z,30.35
2022-10-22T02:33:02.822Z,32.25
2022-10-22T02:35:31.169Z,30.38
2022-10-22T02:37:59.837Z,27.20
2022-10-22T02:40:30.339Z,30.48
2022-10-22T02:42:57.738Z,30.27
2022-10-22T02:45:24.908Z,28.15
2022-10-22T02:47:52.505Z,29.90
2022-10-22T02:50:19.544Z,26.90
2022-10-22T02:52:48.846Z,30.60
2022-10-22T02:55:15.937Z,29.98
2022-10-22T02:57:43.152Z,27.25
2022-10-22T03:00:11.644Z,27.73
2022-10-22T03:02:38.700Z,32.13
2022-10-22T03:05:06.496Z,29.35
2022-10-22T03:07:33.480Z,26.50
2022-10-22T03:10:00.497Z,33.15
2022-10-22T03:12:28.149Z,32.53
2022-10-22T03:14:55.183Z,27.80
2022-10-22T03:17:22.192Z,29.98
2022-10-22T03:19:49.432Z,29.17
2022-10-22T03:22:30.725Z,29.02
2022-10-22T03:25:00.856Z,31.98
2022-10-22T03:27:29.355Z,28.15
2022-10-22T03:29:57.905Z,34.70
2022-10-22T03:32:24.845Z,33.38
2022-10-22T03:34:52.088Z,33.70
2022-10-22T03:37:19.955Z,30.00
2022-10-22T03:39:47.109Z,28.67
2022-10-22T03:42:14.601Z,35.42
2022-10-22T03:44:41.948Z,30.52
2022-10-22T03:47:09.397Z,26.55
2022-10-22T03:49:36.202Z,29.42
2022-10-22T03:52:12.054Z,37.22
2022-10-22T03:57:11.742Z,30.38
2022-10-22T03:59:41.601Z,34.13
2022-10-22T04:04:38.574Z,25.88
2022-10-22T04:07:07.095Z,31.77
2022-10-22T04:09:34.905Z,28.80
2022-10-22T04:12:02.163Z,25.00
2022-10-22T04:14:29.153Z,29.38
2022-10-22T04:16:56.224Z,33.97
2022-10-22T04:19:23.579Z,31.77
2022-10-22T04:21:51.141Z,33.85
2022-10-22T04:24:18.503Z,38.08
2022-10-22T04:26:46.541Z,35.65
2022-10-22T04:29:16.131Z,36.97
2022-10-22T04:34:10.865Z,41.17
2022-10-22T04:36:40.353Z,36.35
2022-10-22T04:39:09.679Z,35.13
2022-10-22T04:41:39.718Z,35.80
2022-10-22T04:46:37.209Z,33.47
2022-10-22T04:49:04.985Z,32.97
2022-10-22T04:51:32.718Z,32.85
2022-10-22T04:53:59.709Z,38.13
2022-10-22T04:56:29.644Z,43.20
2022-10-22T04:59:03.723Z,36.92
2022-10-22T05:01:39.982Z,47.65
2022-10-22T05:04:14.897Z,43.22
2022-10-22T05:06:42.194Z,47.97
2022-10-22T05:09:15.202Z,42.55
2022-10-22T05:11:48.788Z,47.35
2022-10-22T05:14:24.065Z,42.78
2022-10-22T05:16:53.154Z,39.72
2022-10-22T05:19:29.351Z,45.38
2022-10-22T05:22:00.109Z,48.80
2022-10-22T05:24:28.255Z,55.22
2022-10-22T05:26:57.413Z,46.85
2022-10-22T05:29:25.294Z,52.50
2022-10-22T05:31:54.332Z,58.67
2022-10-22T05:34:23.618Z,41.85
2022-10-22T05:36:51.075Z,42.28
2022-10-22T05:39:18.606Z,47.60
2022-10-22T05:41:45.993Z,49.22
2022-10-22T05:44:13.810Z,45.72
2022-10-22T05:46:43.162Z,57.03
2022-10-22T05:49:13.712Z,48.40
2022-10-22T05:51:41.032Z,63.40
2022-10-22T05:54:10.988Z,50.17
2022-10-22T05:59:05.326Z,55.13
2022-10-22T06:01:35.366Z,45.38
2022-10-22T06:04:05.180Z,59.47
2022-10-22T06:06:37.516Z,81.32
2022-10-22T06:09:14.714Z,57.05
2022-10-22T06:11:43.268Z,63.35
2022-10-22T06:14:10.760Z,42.88
2022-10-22T06:16:38.369Z,78.80
2022-10-22T06:19:05.524Z,80.05
2022-10-22T06:21:34.562Z,51.97
2022-10-22T06:24:02.244Z,65.57
2022-10-22T06:26:33.057Z,93.97
2022-10-22T06:29:00.496Z,84.55
2022-10-22T06:31:28.317Z,74.13
2022-10-22T06:33:57.070Z,68.40
2022-10-22T06:36:24.976Z,57.13
2022-10-22T06:38:53.164Z,54.25
2022-10-22T06:41:29.803Z,69.75
2022-10-22T06:44:01.305Z,64.07
2022-10-22T06:46:28.804Z,59.15
2022-10-22T06:48:58.675Z,45.38
2022-10-22T06:51:26.801Z,53.58
2022-10-22T06:53:58.424Z,50.28
2022-10-22T06:56:31.054Z,52.13
2022-10-22T06:58:59.055Z,53.05
2022-10-22T07:01:31.618Z,71.72
2022-10-22T07:06:26.452Z,52.38
2022-10-22T07:08:55.838Z,46.95
2022-10-22T07:11:26.027Z,53.55
2022-10-22T07:13:56.568Z,47.30
2022-10-22T07:16:28.016Z,50.38
2022-10-22T07:18:59.965Z,38.42
2022-10-22T07:21:27.089Z,47.03
2022-10-22T07:24:02.132Z,40.53
2022-10-22T07:26:30.965Z,42.88
2022-10-22T07:29:02.638Z,50.50
2022-10-22T07:31:30.473Z,47.15
2022-10-22T07:33:58.132Z,48.55
2022-10-22T07:36:25.524Z,41.25
2022-10-22T07:38:58.360Z,31.90
2022-10-22T07:41:25.895Z,36.78
2022-10-22T07:43:52.997Z,35.05
2022-10-22T07:46:23.778Z,38.22
2022-10-22T07:48:50.873Z,42.40
2022-10-22T07:51:18.132Z,38.45
2022-10-22T07:53:45.538Z,40.88
2022-10-22T07:56:12.699Z,31.23
2022-10-22T07:58:40.208Z,32.95
2022-10-22T08:01:08.640Z,27.75
2022-10-22T08:03:35.957Z,33.75
2022-10-22T08:06:03.329Z,32.67
2022-10-22T08:08:31.048Z,32.22
2022-10-22T08:11:00.259Z,26.73
2022-10-22T08:13:30.717Z,31.42
2022-10-22T08:16:01.936Z,35.50
2022-10-22T08:18:29.351Z,35.30
2022-10-22T08:20:58.598Z,30.33
2022-10-22T08:23:28.714Z,31.17
2022-10-22T08:25:57.714Z,29.65
2022-10-22T08:28:25.121Z,27.75
2022-10-22T08:30:52.257Z,30.23
2022-10-22T08:33:19.367Z,29.52
2022-10-22T08:35:51.098Z,27.02
2022-10-22T08:38:19.293Z,29.63
2022-10-22T08:40:53.956Z,28.63
2022-10-22T08:43:41.749Z,29.13
2022-10-22T08:46:26.789Z,29.67
2022-10-22T08:49:01.977Z,30.30
2022-10-22T08:51:34.438Z,30.30
2022-10-22T08:54:20.172Z,35.67
2022-10-22T08:57:20.130Z,27.33
2022-10-22T09:00:19.279Z,24.80
2022-10-22T09:03:02.272Z,29.48
2022-10-22T09:05:39.070Z,29.00
2022-10-22T09:08:11.510Z,33.22
2022-10-22T09:10:42.492Z,53.88
2022-10-22T09:13:13.878Z,24.13
2022-10-22T09:15:43.732Z,37.78
2022-10-22T09:18:47.006Z,34.95
2022-10-22T09:21:29.864Z,26.15
2022-10-22T09:24:04.926Z,30.90
2022-10-22T09:26:39.030Z,27.23
2022-10-22T09:29:09.530Z,22.38
2022-10-22T09:31:37.055Z,27.50
2022-10-22T09:34:07.382Z,26.05
2022-10-22T09:36:35.644Z,26.38
2022-10-22T09:39:02.464Z,27.25
2022-10-22T09:41:30.772Z,28.50
2022-10-22T09:43:59.218Z,24.85
2022-10-22T09:46:29.786Z,24.70
2022-10-22T09:49:02.049Z,27.80
2022-10-22T09:52:01.104Z,21.52
2022-10-22T09:54:40.044Z,26.98
2022-10-22T09:57:21.963Z,25.70
2022-10-22T09:59:51.321Z,24.85
2022-10-22T10:02:38.122Z,25.85
2022-10-22T10:05:06.656Z,26.10
2022-10-22T10:07:35.455Z,26.58
2022-10-22T10:10:02.834Z,26.25
2022-10-22T10:12:50.334Z,26.20
2022-10-22T10:15:20.412Z,25.75
2022-10-22T10:18:17.508Z,24.50
2022-10-22T10:20:59.600Z,27.13
2022-10-22T10:23:39.964Z,26.20
2022-10-22T10:26:13.649Z,24.27
2022-10-22T10:28:49.809Z,27.48
2022-10-22T10:31:23.060Z,25.70
2022-10-22T10:34:33.057Z,21.90
2022-10-22T10:36:59.828Z,25.23
2022-10-22T10:39:44.745Z,25.85
2022-10-22T10:42:26.855Z,28.70
2022-10-22T10:45:06.159Z,23.00
2022-10-22T10:47:50.549Z,25.88
2022-10-22T10:50:23.635Z,22.17
2022-10-22T10:53:19.765Z,21.42
2022-10-22T10:55:52.816Z,22.80
2022-10-22T10:58:43.381Z,21.08
2022-10-22T11:01:24.466Z,20.88
2022-10-22T11:04:03.881Z,22.33
2022-10-22T11:06:32.978Z,20.98
2022-10-22T11:09:25.332Z,24.88
2022-10-22T11:12:08.985Z,21.90
2022-10-22T11:14:58.776Z,19.92
2022-10-22T11:17:35.219Z,21.80
2022-10-22T11:20:17.269Z,20.20
2022-10-22T11:23:21.563Z,19.25
2022-10-22T11:25:50.624Z,17.02
2022-10-22T11:28:31.965Z,16.77
2022-10-22T11:31:03.942Z,19.85
2022-10-22T11:33:54.611Z,20.85
2022-10-22T11:36:29.298Z,20.17
2022-10-22T11:38:56.314Z,24.73
2022-10-22T11:41:30.710Z,16.77
2022-10-22T11:44:14.400Z,18.33
2022-10-22T11:46:59.568Z,18.23
2022-10-22T11:49:41.205Z,16.05
2022-10-22T11:52:26.568Z,26.20
2022-10-22T11:54:55.789Z,17.52
2022-10-22T11:57:36.038Z,16.00
2022-10-22T12:00:30.195Z,14.60
2022-10-22T12:03:32.247Z,17.55
2022-10-22T12:06:15.628Z,16.42
2022-10-22T12:08:54.340Z,15.75
2022-10-22T12:11:21.192Z,13.80
2022-10-22T12:14:09.966Z,14.85
2022-10-22T12:16:56.294Z,11.75
2022-10-22T12:19:25.976Z,14.57
2022-10-22T12:22:10.526Z,13.90
2022-10-22T12:24:44.575Z,11.93
2022-10-22T12:27:24.634Z,13.10
2022-10-22T12:29:56.791Z,16.23
2022-10-22T12:32:29.598Z,14.90
2022-10-22T12:34:56.711Z,14.38
2022-10-22T12:37:23.889Z,12.90
2022-10-22T12:39:51.854Z,13.15
2022-10-22T12:42:19.242Z,17.85
2022-10-22T12:44:46.532Z,10.98
2022-10-22T12:47:18.298Z,12.73
2022-10-22T12:49:48.965Z,11.27
2022-10-22T12:52:22.195Z,11.95
2022-10-22T12:54:52.504Z,11.07
2022-10-22T12:57:20.701Z,11.57
2022-10-22T12:59:50.394Z,13.23
2022-10-22T13:02:24.536Z,10.32
2022-10-22T13:05:07.714Z,10.32
2022-10-22T13:07:41.306Z,10.75
2022-10-22T13:10:24.009Z,10.68
2022-10-22T13:12:55.760Z,10.35
2022-10-22T13:15:42.991Z,12.93
2022-10-22T13:18:20.599Z,12.27
2022-10-22T13:20:58.865Z,10.38
2022-10-22T13:23:28.232Z,10.52
2022-10-22T13:26:14.164Z,12.75
2022-10-22T13:28:41.876Z,13.25
2022-10-22T13:31:15.490Z,10.55
2022-10-22T13:33:44.707Z,7.68
2022-10-22T13:36:15.266Z,8.60
2022-10-22T13:38:43.444Z,10.88
2022-10-22T13:41:27.096Z,9.82
2022-10-22T13:43:55.396Z,10.52
2022-10-22T13:46:23.527Z,12.80
2022-10-22T13:48:53.537Z,12.18
2022-10-22T13:51:29.171Z,10.98
2022-10-22T13:53:57.848Z,10.18
2022-10-22T13:56:25.355Z,10.90
2022-10-22T13:58:52.391Z,9.27
2022-10-22T14:01:23.952Z,11.85
2022-10-22T14:03:53.416Z,11.35
2022-10-22T14:06:22.318Z,26.15
2022-10-22T14:09:02.069Z,25.65
2022-10-22T14:11:30.683Z,20.05
2022-10-22T14:13:58.382Z,14.82
2022-10-22T14:16:28.279Z,13.98
2022-10-22T14:18:56.193Z,19.10
2022-10-22T14:21:24.156Z,13.32
2022-10-22T14:23:52.684Z,9.02
2022-10-22T14:26:24.323Z,10.95
2022-10-22T14:34:10.788Z,7.65
2022-10-22T14:36:37.756Z,11.73
2022-10-22T14:39:04.806Z,15.20
2022-10-22T14:41:31.811Z,8.95
2022-10-22T14:43:59.831Z,12.82
2022-10-22T14:46:26.855Z,12.90
2022-10-22T14:48:53.831Z,7.60
2022-10-22T14:51:21.553Z,10.75
2022-10-22T14:53:49.219Z,9.88
2022-10-22T14:56:21.170Z,11.02
2022-10-22T14:58:48.249Z,12.43
2022-10-22T15:01:15.234Z,10.65
2022-10-22T15:03:42.121Z,17.05
2022-10-22T15:06:09.036Z,9.93
2022-10-22T15:08:36.127Z,12.38
2022-10-22T15:11:12.062Z,17.02
2022-10-22T15:13:40.567Z,12.38
2022-10-22T15:16:09.103Z,10.10
2022-10-22T15:18:36.295Z,7.65
2022-10-22T15:21:15.095Z,8.05
2022-10-22T15:23:42.260Z,10.13
2022-10-22T15:26:10.644Z,11.50
2022-10-22T15:28:38.869Z,14.25
2022-10-22T15:31:06.719Z,9.82
2022-10-22T15:33:33.531Z,9.35
2022-10-22T15:36:13.115Z,7.15
2022-10-22T15:38:40.559Z,9.65
2022-10-22T15:41:10.154Z,13.40
2022-10-22T15:43:38.060Z,11.73
2022-10-22T15:46:15.594Z,15.80
2022-10-22T15:48:42.978Z,9.45
2022-10-22T15:51:16.380Z,11.02
2022-10-22T15:53:43.831Z,14.18
2022-10-22T15:56:14.414Z,10.50
2022-10-22T15:58:41.309Z,13.55
2022-10-22T16:01:11.180Z,9.48
2022-10-22T16:06:06.528Z,9.32
2022-10-22T16:08:33.817Z,14.95
2022-10-22T16:11:00.947Z,10.52
2022-10-22T16:13:27.924Z,11.02
2022-10-22T16:15:54.979Z,8.68
2022-10-22T16:18:23.552Z,11.38
2022-10-22T16:20:50.576Z,11.60
2022-10-22T16:23:19.180Z,13.32
2022-10-22T16:25:47.101Z,11.75
2022-10-22T16:28:14.336Z,11.75
2022-10-22T16:30:41.757Z,12.15
2022-10-22T16:33:10.261Z,9.95
2022-10-22T16:35:43.477Z,12.05
2022-10-22T16:38:11.356Z,9.35
2022-10-22T16:40:38.681Z,12.25
2022-10-22T16:43:06.309Z,11.23
2022-10-22T16:45:33.758Z,8.75
2022-10-22T16:48:00.673Z,11.25
2022-10-22T16:50:28.097Z,11.13
2022-10-22T16:52:55.632Z,9.75
2022-10-22T16:55:22.607Z,10.07
2022-10-22T16:57:53.536Z,12.30
2022-10-22T17:00:21.127Z,13.30
2022-10-22T17:02:53.336Z,11.32
2022-10-22T17:05:20.993Z,12.23
2022-10-22T17:07:48.045Z,10.02
2022-10-22T17:10:16.143Z,10.52
2022-10-22T17:12:43.675Z,11.05
2022-10-22T17:15:10.742Z,12.48
2022-10-22T17:17:39.074Z,10.13
2022-10-22T17:20:07.239Z,8.88
2022-10-22T17:22:34.140Z,11.90
2022-10-22T17:25:23.522Z,12.73
2022-10-22T17:27:50.986Z,9.52
2022-10-22T17:30:23.333Z,11.93
2022-10-22T17:32:54.232Z,20.25
2022-10-22T17:35:21.225Z,16.30
2022-10-22T17:37:48.206Z,35.88
2022-10-22T17:40:16.219Z,25.80
2022-10-22T17:42:45.313Z,28.02
2022-10-22T17:45:12.310Z,43.63
2022-10-22T17:47:39.300Z,16.77
2022-10-22T17:50:07.338Z,18.88
2022-10-22T17:52:35.460Z,48.85
2022-10-22T17:55:04.046Z,28.08
2022-10-22T17:57:30.863Z,80.10
2022-10-22T17:59:57.702Z,16.42
2022-10-22T18:02:24.475Z,22.58
2022-10-22T18:04:52.380Z,16.55
2022-10-22T18:07:20.640Z,49.78
2022-10-22T18:09:47.735Z,17.00
2022-10-22T18:12:14.995Z,33.00
2022-10-22T18:14:41.825Z,16.25
2022-10-22T18:17:08.853Z,10.55
2022-10-22T18:19:35.887Z,14.90
2022-10-22T18:22:03.153Z,14.93
2022-10-22T18:24:29.961Z,46.38
2022-10-22T18:26:56.793Z,21.85
2022-10-22T18:29:23.639Z,42.17
2022-10-22T18:31:50.533Z,27.63
2022-10-22T18:34:20.303Z,17.15
2022-10-22T18:36:50.153Z,25.30
2022-10-22T18:39:17.618Z,37.80
2022-10-22T18:41:44.563Z,38.30
2022-10-22T18:44:14.121Z,17.40
2022-10-22T18:46:41.130Z,15.60
2022-10-22T18:49:08.132Z,22.02
2022-10-22T18:51:35.911Z,14.45
2022-10-22T18:54:18.219Z,12.30
2022-10-22T18:56:49.267Z,23.80
2022-10-22T18:59:23.245Z,11.07
2022-10-22T19:01:52.131Z,20.63
2022-10-22T19:04:19.171Z,10.02
2022-10-22T19:06:46.250Z,12.70
2022-10-22T19:09:16.780Z,10.20
2022-10-22T19:11:45.722Z,14.77
2022-10-22T19:14:14.704Z,15.48
2022-10-22T19:16:41.998Z,21.88
2022-10-22T19:19:09.083Z,25.33
2022-10-22T19:21:37.184Z,17.90
2022-10-22T19:24:04.335Z,21.02
2022-10-22T19:26:31.679Z,14.45
2022-10-22T19:28:59.963Z,18.60
2022-10-22T19:31:30.081Z,35.17
2022-10-22T19:33:58.640Z,12.52
2022-10-22T19:36:27.565Z,19.42
2022-10-22T19:38:54.906Z,23.98
2022-10-22T19:41:24.850Z,13.02
2022-10-22T19:43:53.910Z,21.98
2022-10-22T19:46:22.622Z,16.90
2022-10-22T19:48:51.244Z,17.52
2022-10-22T19:51:24.167Z,17.80
2022-10-22T19:53:56.350Z,18.75
2022-10-22T19:56:23.360Z,17.45
2022-10-22T19:58:50.336Z,24.63
2022-10-22T20:01:18.786Z,11.88
2022-10-22T20:04:01.011Z,10.95
2022-10-22T20:06:49.004Z,20.27
2022-10-22T20:09:16.555Z,10.25
2022-10-22T20:11:44.380Z,11.70
2022-10-22T20:14:16.920Z,12.65
2022-10-22T20:16:44.400Z,33.70
2022-10-22T20:19:17.404Z,16.58
2022-10-22T20:21:45.809Z,7.30
2022-10-22T20:24:13.256Z,11.95
2022-10-22T20:26:46.289Z,15.68
2022-10-22T20:29:14.931Z,27.52
2022-10-22T20:31:42.436Z,9.32
2022-10-22T20:34:10.149Z,22.20
2022-10-22T20:36:37.453Z,18.17
2022-10-22T20:39:07.774Z,30.27
2022-10-22T20:41:37.940Z,8.18
2022-10-22T20:44:05.374Z,18.10
2022-10-22T20:46:43.872Z,20.00
2022-10-22T20:49:15.465Z,13.25
2022-10-22T20:51:45.526Z,11.93
2022-10-22T20:54:14.351Z,32.63
2022-10-22T20:56:42.703Z,19.08
2022-10-22T20:59:12.263Z,11.73
2022-10-22T21:01:43.007Z,13.27
2022-10-22T21:04:24.470Z,22.60
2022-10-22T21:06:55.169Z,11.15
2022-10-22T21:14:25.056Z,8.10
2022-10-22T21:16:54.891Z,9.48
2022-10-22T21:19:25.264Z,11.98
2022-10-22T21:21:53.903Z,10.35
2022-10-22T21:24:29.216Z,13.88
2022-10-22T21:27:00.655Z,10.40
2022-10-22T21:29:31.993Z,15.68
2022-10-22T21:32:03.136Z,12.95
2022-10-22T21:34:35.469Z,13.05
2022-10-22T21:37:09.668Z,19.50
2022-10-22T21:39:42.196Z,13.05
2022-10-22T21:42:20.043Z,14.20
2022-10-22T21:44:49.092Z,15.55
2022-10-22T21:47:19.245Z,15.80
2022-10-22T21:49:49.133Z,14.00
2022-10-22T21:52:16.825Z,13.93
2022-10-22T21:54:44.381Z,12.80
2022-10-22T21:57:11.829Z,14.15
2022-10-22T21:59:39.147Z,15.60
2022-10-22T22:02:06.840Z,16.90
2022-10-22T22:04:34.601Z,17.08
2022-10-22T22:07:02.189Z,16.23
2022-10-22T22:09:29.597Z,13.80
2022-10-22T22:11:57.473Z,16.00
2022-10-22T22:14:25.549Z,14.40
2022-10-22T22:16:53.039Z,13.18
2022-10-22T22:19:20.596Z,11.05
2022-10-22T22:21:47.872Z,14.45
2022-10-22T22:24:15.255Z,14.40
2022-10-22T22:26:43.105Z,13.10
2022-10-22T22:29:11.202Z,12.40
2022-10-22T22:31:40.304Z,10.38
2022-10-22T22:34:11.146Z,13.88
2022-10-22T22:36:41.102Z,10.15
2022-10-22T22:41:44.132Z,9.18
2022-10-22T22:44:12.621Z,14.32
2022-10-22T22:46:43.525Z,9.70
2022-10-22T22:49:12.802Z,9.23
2022-10-22T22:51:40.741Z,10.25
2022-10-22T22:54:08.168Z,14.75
2022-10-22T22:56:35.924Z,14.13
2022-10-22T22:59:04.892Z,19.48
2022-10-22T23:01:36.674Z,13.73
2022-10-22T23:04:13.330Z,10.63
2022-10-22T23:06:41.143Z,15.52
2022-10-22T23:09:11.686Z,12.65
2022-10-22T23:11:40.028Z,13.75
2022-10-22T23:14:09.678Z,15.25
2022-10-22T23:16:42.012Z,12.02
2022-10-22T23:19:10.184Z,10.43
2022-10-22T23:21:39.940Z,13.30
2022-10-22T23:24:12.634Z,10.73
2022-10-22T23:26:44.058Z,13.02
2022-10-22T23:29:21.533Z,11.70
2022-10-22T23:31:51.984Z,12.48
2022-10-22T23:34:22.341Z,11.50
2022-10-22T23:36:53.774Z,11.90
2022-10-22T23:39:24.720Z,15.57
2022-10-22T23:41:53.210Z,13.48
2022-10-22T23:44:21.236Z,14.82
2022-10-22T23:46:48.852Z,13.27
2022-10-22T23:49:23.908Z,13.30
2022-10-22T23:51:51.509Z,14.55
2022-10-22T23:54:18.756Z,9.80
2022-10-22T23:56:46.506Z,13.75
